Terminal Aerodrome Forecast
Issued by NWS

Home | Current Version | Previous Version | Text Only | Print | Product List | Glossary On
Versions: 1 2 3 4 5 6 7 8 9 10 11 12 13 14 15 16 17 18 19 20 21
000
FTUS44 KEWX 221023 AAA
TAFSSF
TAF AMD
KSSF 221023Z 2210/2306 04008KT 4SM BR OVC005
     FM222000 11012KT P6SM OVC015
     FM230500 11007KT P6SM OVC007=

USA.gov is the U.S. government's official web portal to all federal, state and local government web resources and services.